Time;durP1;ratioP1;P1;durP2;ratioP2;P2;SDS_P1;SDS_P2;PMS_P1;PMS_P2;Temp;Humidity;BMP_temperature;BMP_pressure;BME280_temperature;BME280_humidity;BME280_pressure;Samples;Min_cycle;Max_cycle;Signal;HPM_P1;HPM_P2
2022/08/05 00:00:24;;;;;;;;;;;;;;;19.85;100.00;101567.38;2614760;36;20455;-45
2022/08/05 00:02:52;;;;;;;;;;;;;;;19.86;100.00;101559.00;2615095;36;19970;-48
2022/08/05 00:05:20;;;;;;;;;;;;;;;19.86;100.00;101550.81;2615497;36;19946;-49
2022/08/05 00:07:51;;;;;;;;;;;;;;;19.81;100.00;101549.66;2616034;31;20031;-47
2022/08/05 00:10:21;;;;;;;;;;;;;;;19.76;100.00;101555.63;2615227;36;19946;-46
2022/08/05 00:12:49;;;;;;;;;;;;;;;19.82;100.00;101541.28;2615511;36;19954;-46
2022/08/05 00:15:17;;;;;;;;;;;;;;;19.88;100.00;101540.53;2616011;36;19950;-47
2022/08/05 00:17:45;;;;;;;;;;;;;;;19.85;100.00;101548.25;2614901;36;19971;-46
2022/08/05 00:20:13;;;;;;;;;;;;;;;19.85;100.00;101549.09;2614617;36;19989;-47
2022/08/05 00:22:41;;;;;;;;;;;;;;;19.78;100.00;101567.25;2615767;36;20027;-46
2022/08/05 00:25:12;;;;;;;;;;;;;;;19.58;100.00;101575.84;2615590;36;19981;-49
2022/08/05 00:27:41;;;;;;;;;;;;;;;19.59;100.00;101561.16;2615054;36;19951;-48
2022/08/05 00:30:10;;;;;;;;;;;;;;;19.73;100.00;101553.25;2615406;36;19950;-46
2022/08/05 00:32:41;;;;;;;;;;;;;;;19.79;100.00;101563.50;2616135;31;19946;-50
2022/08/05 00:35:10;;;;;;;;;;;;;;;19.70;100.00;101559.03;2615514;36;19950;-48
2022/08/05 00:37:38;;;;;;;;;;;;;;;19.53;100.00;101550.09;2615780;36;19954;-49
2022/08/05 00:40:06;;;;;;;;;;;;;;;19.59;100.00;101542.03;2615290;36;19950;-48
2022/08/05 00:42:40;;;;;;;;;;;;;;;19.68;100.00;101544.72;2614961;36;19954;-48
2022/08/05 00:45:09;;;;;;;;;;;;;;;19.44;100.00;101554.75;2615588;36;20125;-47
2022/08/05 00:47:37;;;;;;;;;;;;;;;19.10;100.00;101547.72;2614924;36;19946;-45
2022/08/05 00:50:06;;;;;;;;;;;;;;;19.31;100.00;101549.03;2615179;31;19958;-50
2022/08/05 00:52:34;;;;;;;;;;;;;;;19.38;100.00;101555.47;2615469;31;19962;-47
2022/08/05 00:55:02;;;;;;;;;;;;;;;19.39;100.00;101552.56;2616095;36;20459;-47
2022/08/05 00:57:30;;;;;;;;;;;;;;;19.36;100.00;101554.78;2615296;36;19953;-47
2022/08/05 01:00:01;;;;;;;;;;;;;;;19.31;100.00;101559.94;2615337;36;20458;-49
2022/08/05 01:02:29;;;;;;;;;;;;;;;19.38;100.00;101556.31;2614299;36;19950;-53
2022/08/05 01:04:57;;;;;;;;;;;;;;;19.40;100.00;101558.88;2615020;36;19950;-48
2022/08/05 01:07:25;;;;;;;;;;;;;;;19.42;100.00;101556.81;2614534;36;20416;-48
2022/08/05 01:09:53;;;;;;;;;;;;;;;19.35;100.00;101562.13;2615179;36;20460;-47
2022/08/05 01:12:23;;;;;;;;;;;;;;;19.34;100.00;101549.50;2615509;36;20445;-47
2022/08/05 01:14:53;;;;;;;;;;;;;;;19.39;100.00;101546.22;2615203;36;19939;-48
2022/08/05 01:17:25;;;;;;;;;;;;;;;19.51;100.00;101547.56;2614935;36;19946;-49
2022/08/05 01:19:56;;;;;;;;;;;;;;;19.47;100.00;101546.22;2615539;36;20456;-47
2022/08/05 01:22:33;;;;;;;;;;;;;;;19.53;100.00;101555.56;2614697;36;20367;-48
2022/08/05 01:25:22;;;;;;;;;;;;;;;19.43;100.00;101564.84;2616595;36;20453;-48
2022/08/05 01:28:02;;;;;;;;;;;;;;;19.35;100.00;101564.03;2615294;36;20416;-50
2022/08/05 01:30:31;;;;;;;;;;;;;;;19.35;100.00;101564.03;2616319;36;19973;-50
2022/08/05 01:33:00;;;;;;;;;;;;;;;19.44;100.00;101562.94;2615922;36;19953;-49
2022/08/05 01:35:32;;;;;;;;;;;;;;;19.40;100.00;101567.06;2616288;36;20328;-53
2022/08/05 01:38:01;;;;;;;;;;;;;;;19.51;100.00;101560.38;2616386;36;19977;-48
2022/08/05 01:40:32;;;;;;;;;;;;;;;19.51;100.00;101561.22;2615030;36;19958;-47
2022/08/05 01:43:04;;;;;;;;;;;;;;;19.50;100.00;101555.94;2609528;31;19951;-49
2022/08/05 01:45:32;;;;;;;;;;;;;;;19.36;100.00;101552.06;2614780;36;19947;-46
2022/08/05 01:48:02;;;;;;;;;;;;;;;19.44;100.00;101555.59;2614415;36;20034;-46
2022/08/05 01:50:31;;;;;;;;;;;;;;;19.38;100.00;101550.84;2615159;31;20325;-45
2022/08/05 01:53:01;;;;;;;;;;;;;;;19.30;100.00;101552.75;2614896;36;20356;-46
2022/08/05 01:55:30;;;;;;;;;;;;;;;19.20;100.00;101559.28;2615085;36;19973;-47
2022/08/05 01:57:59;;;;;;;;;;;;;;;19.14;100.00;101570.03;2615407;36;19950;-47
2022/08/05 02:00:31;;;;;;;;;;;;;;;19.14;100.00;101573.66;2615003;36;20436;-47
2022/08/05 02:03:01;;;;;;;;;;;;;;;19.15;100.00;101572.59;2614698;36;19954;-48
2022/08/05 02:05:31;;;;;;;;;;;;;;;19.09;100.00;101581.50;2615078;31;19954;-48
2022/08/05 02:08:00;;;;;;;;;;;;;;;19.00;100.00;101571.63;2615313;36;20459;-47
2022/08/05 02:10:30;;;;;;;;;;;;;;;18.98;100.00;101570.97;2614954;31;20036;-47
2022/08/05 02:13:02;;;;;;;;;;;;;;;19.02;100.00;101577.75;2613840;36;19955;-47
2022/08/05 02:15:36;;;;;;;;;;;;;;;19.25;100.00;101584.16;2606350;36;19954;-48
2022/08/05 02:18:07;;;;;;;;;;;;;;;19.15;100.00;101583.50;2613213;36;19965;-46
2022/08/05 02:20:42;;;;;;;;;;;;;;;19.04;100.00;101575.72;2614269;54;19973;-48
2022/08/05 02:23:12;;;;;;;;;;;;;;;19.02;100.00;101564.97;2614397;36;19950;-48
2022/08/05 02:25:42;;;;;;;;;;;;;;;19.03;100.00;101563.94;2614768;36;19954;-46
2022/08/05 02:28:12;;;;;;;;;;;;;;;19.11;100.00;101565.81;2613650;31;20515;-47
2022/08/05 02:30:44;;;;;;;;;;;;;;;19.08;100.00;101560.72;2614240;36;19993;-48
2022/08/05 02:33:16;;;;;;;;;;;;;;;19.08;100.00;101572.47;2614332;36;20321;-44
2022/08/05 02:35:46;;;;;;;;;;;;;;;19.01;100.00;101570.63;2615429;36;20446;-47
2022/08/05 02:38:15;;;;;;;;;;;;;;;19.11;100.00;101571.28;2614684;31;19954;-51
2022/08/05 02:40:44;;;;;;;;;;;;;;;19.25;100.00;101572.41;2615418;36;19969;-49
2022/08/05 02:43:13;;;;;;;;;;;;;;;19.19;100.00;101568.50;2613824;36;19954;-48
2022/08/05 02:45:44;;;;;;;;;;;;;;;19.28;100.00;101571.22;2615210;36;19974;-47
2022/08/05 02:48:13;;;;;;;;;;;;;;;19.14;100.00;101568.19;2613849;36;20343;-47
2022/08/05 02:50:45;;;;;;;;;;;;;;;19.31;100.00;101558.03;2614615;31;20339;-45
2022/08/05 02:53:14;;;;;;;;;;;;;;;19.35;100.00;101555.84;2613554;36;19953;-47
2022/08/05 02:55:42;;;;;;;;;;;;;;;19.24;100.00;101566.09;2615409;36;19950;-46
2022/08/05 02:58:10;;;;;;;;;;;;;;;19.25;100.00;101566.94;2614736;36;19947;-44
2022/08/05 03:00:39;;;;;;;;;;;;;;;19.27;100.00;101564.88;2615284;36;19946;-47
2022/08/05 03:03:10;;;;;;;;;;;;;;;19.19;100.00;101560.31;2613919;36;19950;-49
2022/08/05 03:05:39;;;;;;;;;;;;;;;19.10;100.00;101560.53;2615172;36;19950;-45
2022/08/05 03:08:08;;;;;;;;;;;;;;;19.09;100.00;101559.66;2614266;36;19954;-46
2022/08/05 03:10:36;;;;;;;;;;;;;;;19.18;100.00;101546.84;2615546;36;19939;-48
2022/08/05 03:13:04;;;;;;;;;;;;;;;19.24;100.00;101548.84;2614259;36;19954;-48
2022/08/05 03:15:32;;;;;;;;;;;;;;;19.25;100.00;101551.41;2615369;31;20018;-47
2022/08/05 03:18:00;;;;;;;;;;;;;;;19.33;100.00;101546.94;2613411;36;19946;-48
2022/08/05 03:20:31;;;;;;;;;;;;;;;19.39;100.00;101555.28;2614993;36;19962;-48
2022/08/05 03:22:59;;;;;;;;;;;;;;;19.28;100.00;101549.38;2614733;36;20001;-47
2022/08/05 03:25:28;;;;;;;;;;;;;;;19.13;100.00;101555.56;2615632;31;19954;-47
2022/08/05 03:27:56;;;;;;;;;;;;;;;19.09;100.00;101562.38;2613800;36;19954;-47
2022/08/05 03:30:25;;;;;;;;;;;;;;;19.04;100.00;101557.47;2614475;31;19946;-47
2022/08/05 03:32:54;;;;;;;;;;;;;;;19.05;100.00;101561.03;2613027;36;19954;-49
2022/08/05 03:35:22;;;;;;;;;;;;;;;19.00;100.00;101558.00;2615275;31;19953;-45
2022/08/05 03:37:53;;;;;;;;;;;;;;;19.06;100.00;101562.75;2615017;36;19950;-46
2022/08/05 03:40:22;;;;;;;;;;;;;;;19.03;100.00;101539.38;2614978;36;19946;-51
2022/08/05 03:42:50;;;;;;;;;;;;;;;19.08;100.00;101541.63;2614041;36;19950;-46
2022/08/05 03:45:18;;;;;;;;;;;;;;;19.09;100.00;101540.56;2614595;36;19954;-45
2022/08/05 03:47:46;;;;;;;;;;;;;;;18.97;100.00;101536.53;2613389;36;19951;-49
2022/08/05 03:50:14;;;;;;;;;;;;;;;18.95;100.00;101538.56;2614755;36;19958;-46
2022/08/05 03:52:46;;;;;;;;;;;;;;;18.91;100.00;101541.63;2614706;36;19977;-47
2022/08/05 03:55:19;;;;;;;;;;;;;;;18.80;100.00;101550.19;2615439;36;19947;-49
2022/08/05 03:57:54;;;;;;;;;;;;;;;18.76;100.00;101557.00;2616030;36;19944;-46
2022/08/05 04:00:28;;;;;;;;;;;;;;;18.87;100.00;101553.06;2615231;31;19942;-46
2022/08/05 04:02:57;;;;;;;;;;;;;;;18.88;100.00;101554.78;2614044;36;20442;-46
2022/08/05 04:05:25;;;;;;;;;;;;;;;18.89;100.00;101562.78;2615371;36;20031;-46
2022/08/05 04:07:54;;;;;;;;;;;;;;;18.97;100.00;101564.63;2613824;36;19950;-48
2022/08/05 04:10:25;;;;;;;;;;;;;;;18.81;100.00;101565.50;2614726;36;19951;-48
2022/08/05 04:12:53;;;;;;;;;;;;;;;18.77;100.00;101571.47;2615429;36;19939;-47
2022/08/05 04:15:21;;;;;;;;;;;;;;;18.79;100.00;101570.28;2615873;36;19957;-45
2022/08/05 04:17:49;;;;;;;;;;;;;;;18.80;100.00;101569.25;2614746;36;19950;-48
2022/08/05 04:20:21;;;;;;;;;;;;;;;18.87;100.00;101563.97;2615386;36;19950;-48
2022/08/05 04:22:49;;;;;;;;;;;;;;;18.85;100.00;101572.31;2615069;36;19951;-47
2022/08/05 04:25:17;;;;;;;;;;;;;;;18.82;100.00;101575.38;2616041;31;20559;-46
2022/08/05 04:27:48;;;;;;;;;;;;;;;18.80;100.00;101573.84;2614363;36;19950;-47
2022/08/05 04:30:16;;;;;;;;;;;;;;;18.74;100.00;101569.94;2615422;31;19951;-47
2022/08/05 04:32:44;;;;;;;;;;;;;;;18.72;100.00;101572.00;2614450;36;20075;-49
2022/08/05 04:35:12;;;;;;;;;;;;;;;18.80;100.00;101573.84;2615684;36;19973;-47
2022/08/05 04:37:40;;;;;;;;;;;;;;;18.79;100.00;101574.91;2615439;31;20457;-49
2022/08/05 04:40:09;;;;;;;;;;;;;;;18.69;100.00;101578.63;2615763;36;20037;-46
2022/08/05 04:42:37;;;;;;;;;;;;;;;18.59;100.00;101577.97;2614386;36;19954;-49
2022/08/05 04:45:09;;;;;;;;;;;;;;;18.73;100.00;101574.53;2615315;36;19954;-46
2022/08/05 04:47:37;;;;;;;;;;;;;;;18.72;100.00;101578.28;2614301;36;19946;-48
2022/08/05 04:50:05;;;;;;;;;;;;;;;18.64;100.00;101574.72;2614943;36;19954;-48
2022/08/05 04:52:33;;;;;;;;;;;;;;;18.58;100.00;101564.50;2615090;36;19954;-46
2022/08/05 04:55:01;;;;;;;;;;;;;;;18.68;100.00;101557.00;2615849;36;20443;-47
2022/08/05 04:57:29;;;;;;;;;;;;;;;18.58;100.00;101559.03;2614685;36;20420;-48
2022/08/05 04:59:57;;;;;;;;;;;;;;;18.54;100.00;101558.56;2615456;36;19951;-46
2022/08/05 05:02:28;;;;;;;;;;;;;;;18.64;100.00;101561.06;2614823;36;19973;-47
2022/08/05 05:04:56;;;;;;;;;;;;;;;18.59;100.00;101564.31;2615894;36;20443;-49
2022/08/05 05:07:24;;;;;;;;;;;;;;;18.46;100.00;101564.88;2614319;36;19957;-46
2022/08/05 05:09:52;;;;;;;;;;;;;;;18.56;100.00;101565.53;2615829;36;20005;-45
2022/08/05 05:12:20;;;;;;;;;;;;;;;18.48;100.00;101573.72;2615127;36;20367;-47
2022/08/05 05:14:48;;;;;;;;;;;;;;;18.34;100.00;101572.53;2614777;36;19981;-50
2022/08/05 05:17:16;;;;;;;;;;;;;;;18.33;100.00;101580.84;2614630;36;20007;-47
2022/08/05 05:19:47;;;;;;;;;;;;;;;18.20;100.00;101568.59;2615909;31;19983;-50
2022/08/05 05:22:15;;;;;;;;;;;;;;;18.20;100.00;101567.75;2614709;36;19950;-45
2022/08/05 05:24:43;;;;;;;;;;;;;;;18.18;100.00;101584.28;2615930;36;19950;-45
2022/08/05 05:27:11;;;;;;;;;;;;;;;18.16;100.00;101578.13;2615017;36;19946;-45
2022/08/05 05:29:40;;;;;;;;;;;;;;;18.29;100.00;101583.06;2615460;36;19946;-46
2022/08/05 05:32:08;;;;;;;;;;;;;;;18.31;100.00;101577.47;2613984;36;19958;-45
2022/08/05 05:34:36;;;;;;;;;;;;;;;18.35;100.00;101576.09;2613796;36;19969;-46
2022/08/05 05:37:07;;;;;;;;;;;;;;;18.47;100.00;101574.72;2614898;36;19950;-47
2022/08/05 05:39:35;;;;;;;;;;;;;;;18.50;100.00;101576.28;2616495;31;20389;-46
2022/08/05 05:42:04;;;;;;;;;;;;;;;18.47;100.00;101580.19;2614045;36;19951;-49
2022/08/05 05:44:32;;;;;;;;;;;;;;;18.59;100.00;101583.41;2615552;36;20472;-46
2022/08/05 05:47:01;;;;;;;;;;;;;;;18.70;100.00;101590.41;2614385;36;19957;-45
2022/08/05 05:49:29;;;;;;;;;;;;;;;18.76;100.00;101589.72;2615332;36;19946;-48
2022/08/05 05:51:57;;;;;;;;;;;;;;;18.61;100.00;101581.38;2614913;36;19947;-47
2022/08/05 05:54:28;;;;;;;;;;;;;;;18.61;100.00;101586.84;2614968;31;19950;-48
2022/08/05 05:56:56;;;;;;;;;;;;;;;18.69;100.00;101585.97;2615294;36;19993;-47
2022/08/05 05:59:24;;;;;;;;;;;;;;;18.81;100.00;101587.31;2614827;31;20413;-47
2022/08/05 06:01:52;;;;;;;;;;;;;;;18.96;100.00;101590.22;2614717;36;19950;-45
2022/08/05 06:04:20;;;;;;;;;;;;;;;19.23;100.00;101597.16;2615708;36;19950;-46
2022/08/05 06:06:54;;;;;;;;;;;;;;;19.39;100.00;101588.06;2615254;47;19958;-48
2022/08/05 06:09:22;;;;;;;;;;;;;;;19.55;100.00;101600.78;2615128;36;20341;-49
2022/08/05 06:11:53;;;;;;;;;;;;;;;19.58;100.00;101594.09;2614604;36;19946;-51
2022/08/05 06:14:21;;;;;;;;;;;;;;;19.82;100.00;101589.56;2615259;36;19989;-48
2022/08/05 06:16:49;;;;;;;;;;;;;;;19.82;100.00;101595.91;2614767;36;19975;-47
2022/08/05 06:19:17;;;;;;;;;;;;;;;20.05;100.00;101589.59;2615444;36;19951;-47
2022/08/05 06:21:45;;;;;;;;;;;;;;;20.12;100.00;101596.06;2614517;36;19967;-49
2022/08/05 06:24:15;;;;;;;;;;;;;;;19.86;100.00;101594.53;2614170;36;20041;-48
2022/08/05 06:26:44;;;;;;;;;;;;;;;19.77;100.00;101596.41;2615313;36;19950;-46
2022/08/05 06:29:14;;;;;;;;;;;;;;;19.67;100.00;101603.97;2615388;36;19946;-47
2022/08/05 06:31:42;;;;;;;;;;;;;;;19.90;100.00;101609.50;2614682;36;19974;-47
2022/08/05 06:34:10;;;;;;;;;;;;;;;19.89;100.00;101612.41;2614468;31;19950;-46
2022/08/05 06:36:38;;;;;;;;;;;;;;;20.04;100.00;101612.53;2615158;31;19946;-47
2022/08/05 06:39:06;;;;;;;;;;;;;;;20.42;100.00;101609.84;2614898;36;20395;-46
2022/08/05 06:41:34;;;;;;;;;;;;;;;20.56;100.00;101600.84;2615244;36;19950;-48
2022/08/05 06:44:03;;;;;;;;;;;;;;;20.30;100.00;101609.41;2613788;36;19970;-49
2022/08/05 06:46:33;;;;;;;;;;;;;;;20.17;100.00;101612.78;2615156;36;19950;-46
2022/08/05 06:49:01;;;;;;;;;;;;;;;20.40;100.00;101603.72;2615370;36;19955;-46
2022/08/05 06:51:30;;;;;;;;;;;;;;;20.63;100.00;101604.53;2615333;31;19959;-47
2022/08/05 06:53:59;;;;;;;;;;;;;;;21.03;100.00;101606.25;2614356;36;20412;-51
2022/08/05 06:56:27;;;;;;;;;;;;;;;20.83;100.00;101604.91;2614180;36;20363;-46
2022/08/05 06:58:55;;;;;;;;;;;;;;;20.76;100.00;101612.16;2615129;36;19954;-48
2022/08/05 07:01:23;;;;;;;;;;;;;;;21.11;100.00;101611.63;2614983;36;20440;-47
2022/08/05 07:03:54;;;;;;;;;;;;;;;21.47;100.00;101619.94;2614196;36;19954;-45
2022/08/05 07:06:22;;;;;;;;;;;;;;;21.59;100.00;101614.88;2613971;31;20440;-44
2022/08/05 07:08:50;;;;;;;;;;;;;;;21.83;100.00;101621.94;2613775;36;19973;-49
2022/08/05 07:11:18;;;;;;;;;;;;;;;21.50;100.00;101624.19;2614193;36;19951;-46
2022/08/05 07:19:10;;;;;;;;;;;;;;;21.17;100.00;101632.78;2613305;36;19958;-48
2022/08/05 07:21:38;;;;;;;;;;;;;;;20.98;100.00;101629.56;2612916;36;19954;-46
2022/08/05 07:24:07;;;;;;;;;;;;;;;21.17;100.00;101633.66;2615200;36;19939;-46
2022/08/05 07:26:35;;;;;;;;;;;;;;;21.00;100.00;101643.91;2615055;36;20029;-47
2022/08/05 07:29:03;;;;;;;;;;;;;;;21.50;100.00;101641.50;2614788;36;20001;-50
2022/08/05 07:31:31;;;;;;;;;;;;;;;21.53;100.00;101648.50;2613968;36;19946;-47
2022/08/05 07:33:59;;;;;;;;;;;;;;;21.46;100.00;101655.75;2614971;36;19985;-50
2022/08/05 07:36:32;;;;;;;;;;;;;;;21.94;100.00;101655.38;2613565;36;19950;-46
2022/08/05 07:39:00;;;;;;;;;;;;;;;21.82;100.00;101660.47;2614581;36;20421;-48
2022/08/05 07:41:28;;;;;;;;;;;;;;;21.86;100.00;101651.69;2613806;31;19965;-50
2022/08/05 07:43:57;;;;;;;;;;;;;;;22.16;100.00;101654.34;2614736;31;19951;-46
2022/08/05 07:46:25;;;;;;;;;;;;;;;21.76;100.00;101658.47;2614754;31;20433;-45
2022/08/05 07:48:53;;;;;;;;;;;;;;;21.87;100.00;101655.28;2614717;31;20359;-47
2022/08/05 07:51:21;;;;;;;;;;;;;;;21.54;100.00;101661.16;2615241;36;19993;-46
2022/08/05 07:53:52;;;;;;;;;;;;;;;21.76;100.00;101680.41;2616044;36;19981;-48
2022/08/05 07:56:20;;;;;;;;;;;;;;;21.96;100.00;101669.72;2615138;31;19951;-51
2022/08/05 07:58:48;;;;;;;;;;;;;;;22.45;100.00;101666.28;2614622;36;20865;-46
2022/08/05 08:01:16;;;;;;;;;;;;;;;22.50;100.00;101674.78;2615263;31;19950;-50
2022/08/05 08:03:47;;;;;;;;;;;;;;;21.99;100.00;101675.66;2615554;36;19954;-48
2022/08/05 08:06:15;;;;;;;;;;;;;;;22.65;100.00;101674.72;2615086;31;19958;-47
2022/08/05 08:08:44;;;;;;;;;;;;;;;22.86;100.00;101673.84;2615958;36;19946;-51
2022/08/05 08:11:14;;;;;;;;;;;;;;;23.25;100.00;101677.16;2615608;31;19950;-47
2022/08/05 08:13:43;;;;;;;;;;;;;;;23.43;100.00;101677.47;2614871;36;19946;-48
2022/08/05 08:16:11;;;;;;;;;;;;;;;23.25;100.00;101685.38;2615210;36;20416;-49
2022/08/05 08:18:39;;;;;;;;;;;;;;;23.12;100.00;101688.03;2615208;36;20436;-47
2022/08/05 08:21:07;;;;;;;;;;;;;;;22.57;100.00;101694.06;2615126;36;19951;-47
2022/08/05 08:23:35;;;;;;;;;;;;;;;22.66;100.00;101694.75;2615549;36;19974;-46
2022/08/05 08:26:03;;;;;;;;;;;;;;;22.19;100.00;101697.81;2615096;36;19942;-46
2022/08/05 08:28:34;;;;;;;;;;;;;;;22.36;100.00;101693.00;2615262;36;19962;-44
2022/08/05 08:31:02;;;;;;;;;;;;;;;22.91;100.00;101706.22;2615360;36;19950;-48
2022/08/05 08:33:30;;;;;;;;;;;;;;;23.03;100.00;101692.78;2614012;36;19951;-50
2022/08/05 08:35:59;;;;;;;;;;;;;;;23.18;100.00;101696.31;2615637;36;20006;-47
2022/08/05 08:38:27;;;;;;;;;;;;;;;23.64;100.00;101716.06;2615215;36;19962;-49
2022/08/05 08:40:55;;;;;;;;;;;;;;;23.51;100.00;101711.31;2615443;36;19951;-48
2022/08/05 08:43:25;;;;;;;;;;;;;;;22.91;100.00;101717.19;2614428;36;19954;-48
2022/08/05 08:45:56;;;;;;;;;;;;;;;22.72;100.00;101716.78;2613891;36;19954;-49
2022/08/05 08:48:24;;;;;;;;;;;;;;;22.72;100.00;101722.28;2615084;36;19973;-48
2022/08/05 08:50:52;;;;;;;;;;;;;;;22.77;100.00;101731.81;2615644;36;19939;-48
2022/08/05 08:53:21;;;;;;;;;;;;;;;22.82;100.00;101721.09;2615364;36;19977;-46
2022/08/05 08:55:49;;;;;;;;;;;;;;;23.09;100.00;101720.28;2615132;31;20340;-46
2022/08/05 08:58:17;;;;;;;;;;;;;;;23.41;100.00;101728.19;2615911;36;20360;-51
2022/08/05 09:00:45;;;;;;;;;;;;;;;23.24;100.00;101733.13;2614573;36;20010;-52
2022/08/05 09:03:16;;;;;;;;;;;;;;;23.34;100.00;101738.28;2615054;36;19951;-51
2022/08/05 09:05:44;;;;;;;;;;;;;;;22.90;100.00;101734.69;2615805;36;19958;-46
2022/08/05 09:08:12;;;;;;;;;;;;;;;22.91;100.00;101733.66;2615059;31;19951;-51
2022/08/05 09:10:44;;;;;;;;;;;;;;;23.09;100.00;101731.28;2614603;31;20058;-49
2022/08/05 09:13:14;;;;;;;;;;;;;;;23.43;100.00;101732.41;2614623;36;19977;-48
2022/08/05 09:15:43;;;;;;;;;;;;;;;23.54;93.46;101735.66;2615049;36;19973;-47
2022/08/05 09:18:11;;;;;;;;;;;;;;;23.50;100.00;101737.97;2614716;36;19946;-48
2022/08/05 09:20:43;;;;;;;;;;;;;;;23.40;96.87;101742.97;2615524;36;19973;-50
2022/08/05 09:23:16;;;;;;;;;;;;;;;23.83;97.45;101748.31;2615792;31;19950;-50
2022/08/05 09:25:46;;;;;;;;;;;;;;;23.05;100.00;101745.59;2615105;31;19958;-47
2022/08/05 09:28:16;;;;;;;;;;;;;;;23.41;94.54;101756.50;2614966;36;20007;-47
2022/08/05 09:30:45;;;;;;;;;;;;;;;23.82;89.08;101754.00;2615227;36;19951;-49
2022/08/05 09:33:13;;;;;;;;;;;;;;;23.79;88.35;101739.63;2614184;31;19953;-48
2022/08/05 09:35:53;;;;;;;;;;;;;;;23.95;88.02;101762.38;2614993;31;19950;-47
2022/08/05 09:38:22;;;;;;;;;;;;;;;22.56;61.52;101769.19;2615218;31;19953;-49
2022/08/05 09:40:50;;;;;;;;;;;;;;;23.19;60.79;101763.94;2615324;31;20347;-48
2022/08/05 09:43:28;;;;;;;;;;;;;;;24.31;67.72;101767.63;2614547;36;19954;-49
2022/08/05 09:45:56;;;;;;;;;;;;;;;23.77;69.51;101769.19;2613883;36;19947;-50
2022/08/05 09:48:26;;;;;;;;;;;;;;;23.82;71.35;101773.25;2613642;31;19985;-48
2022/08/05 09:51:02;;;;;;;;;;;;;;;23.67;59.51;101782.47;2615480;36;20042;-47
2022/08/05 09:53:30;;;;;;;;;;;;;;;24.18;63.59;101775.81;2615190;36;19989;-47
2022/08/05 09:55:59;;;;;;;;;;;;;;;23.54;69.17;101777.75;2615122;36;20015;-50
2022/08/05 09:58:28;;;;;;;;;;;;;;;24.13;72.04;101775.56;2614802;36;19958;-48
2022/08/05 10:00:57;;;;;;;;;;;;;;;23.87;59.32;101779.03;2613190;36;20028;-49
2022/08/05 10:03:26;;;;;;;;;;;;;;;23.69;57.90;101793.25;2614248;36;20040;-50
2022/08/05 10:06:07;;;;;;;;;;;;;;;23.86;58.57;101782.84;2614509;36;19946;-47
2022/08/05 10:08:36;;;;;;;;;;;;;;;23.95;62.31;101784.34;2615213;36;19974;-49
2022/08/05 10:11:06;;;;;;;;;;;;;;;24.15;60.21;101784.47;2582408;36;19950;-46
2022/08/05 10:13:35;;;;;;;;;;;;;;;24.25;61.15;101795.13;2614309;31;20037;-48
2022/08/05 10:16:04;;;;;;;;;;;;;;;23.95;60.46;101798.09;2614434;36;19950;-47
2022/08/05 10:18:33;;;;;;;;;;;;;;;23.64;58.63;101796.59;2614643;36;19956;-51
2022/08/05 10:21:03;;;;;;;;;;;;;;;23.99;64.99;101796.66;2613433;36;19962;-49
2022/08/05 10:23:35;;;;;;;;;;;;;;;24.25;60.04;101797.88;2615733;36;19946;-49
2022/08/05 10:26:04;;;;;;;;;;;;;;;24.36;57.65;101793.66;2613829;36;19969;-48
2022/08/05 10:28:33;;;;;;;;;;;;;;;24.56;56.85;101797.34;2614350;36;19977;-50
2022/08/05 10:31:02;;;;;;;;;;;;;;;24.51;57.88;101797.09;2614098;36;19951;-49
2022/08/05 10:33:32;;;;;;;;;;;;;;;24.61;57.29;101799.50;2614329;36;19987;-49
2022/08/05 10:36:02;;;;;;;;;;;;;;;24.68;54.86;101808.63;2611664;36;19961;-49
2022/08/05 10:38:32;;;;;;;;;;;;;;;24.62;50.81;101792.97;2613988;36;19993;-51
2022/08/05 10:41:04;;;;;;;;;;;;;;;24.75;52.22;101812.25;2614411;36;19955;-51
2022/08/05 10:43:36;;;;;;;;;;;;;;;25.12;48.30;101804.50;2611585;36;19973;-50
2022/08/05 10:46:07;;;;;;;;;;;;;;;25.51;48.70;101801.97;2613708;36;19950;-55
2022/08/05 10:48:39;;;;;;;;;;;;;;;25.01;49.38;101810.59;2614850;36;20355;-49
2022/08/05 10:51:09;;;;;;;;;;;;;;;25.68;49.65;101803.25;2613871;36;20448;-53
2022/08/05 10:53:38;;;;;;;;;;;;;;;25.49;46.70;101806.88;2615005;36;19947;-51
2022/08/05 10:56:10;;;;;;;;;;;;;;;24.79;50.50;101821.81;2613116;36;19955;-47
2022/08/05 10:58:48;;;;;;;;;;;;;;;25.26;52.40;101815.53;2613902;36;20736;-52
2022/08/05 11:01:16;;;;;;;;;;;;;;;25.70;52.25;101814.06;2614084;36;20333;-53
2022/08/05 11:03:59;;;;;;;;;;;;;;;25.60;50.82;101835.69;2612736;36;19954;-52
2022/08/05 11:06:28;;;;;;;;;;;;;;;24.96;48.29;101835.19;2613334;36;19958;-47
2022/08/05 11:09:11;;;;;;;;;;;;;;;24.80;48.76;101839.16;2613746;36;19969;-52
2022/08/05 11:11:43;;;;;;;;;;;;;;;24.98;46.88;101850.47;2606313;36;20499;-50
2022/08/05 11:14:12;;;;;;;;;;;;;;;25.13;50.38;101847.53;2606484;31;19950;-50
2022/08/05 11:16:41;;;;;;;;;;;;;;;24.58;49.22;101854.94;2611539;36;19950;-48
2022/08/05 11:19:24;;;;;;;;;;;;;;;24.52;48.86;101856.59;2613849;36;20082;-49
2022/08/05 11:21:52;;;;;;;;;;;;;;;24.45;51.44;101848.31;2613270;36;19950;-49
2022/08/05 11:24:22;;;;;;;;;;;;;;;24.58;52.63;101855.78;2613646;36;19946;-47
2022/08/05 11:27:14;;;;;;;;;;;;;;;24.76;51.30;101858.00;2613200;36;20296;-48
2022/08/05 11:29:43;;;;;;;;;;;;;;;24.83;49.63;101858.88;2614182;31;19950;-49
2022/08/05 11:32:27;;;;;;;;;;;;;;;24.37;50.09;101862.25;2613151;36;20320;-48
2022/08/05 11:34:56;;;;;;;;;;;;;;;24.70;48.17;101874.50;2611746;31;19947;-51
2022/08/05 11:37:47;;;;;;;;;;;;;;;24.70;51.10;101875.34;2611335;36;19946;-48
2022/08/05 11:40:15;;;;;;;;;;;;;;;25.08;51.49;101877.59;2613634;36;20329;-48
2022/08/05 11:42:47;;;;;;;;;;;;;;;24.73;55.22;101880.44;2613115;36;19985;-50
2022/08/05 11:45:17;;;;;;;;;;;;;;;24.70;58.68;101891.00;2612439;36;19955;-48
2022/08/05 11:47:45;;;;;;;;;;;;;;;24.15;59.78;101889.00;2612679;36;19980;-48
2022/08/05 11:50:13;;;;;;;;;;;;;;;24.51;64.17;101900.84;2612202;36;19979;-48
2022/08/05 11:52:42;;;;;;;;;;;;;;;24.39;62.96;101895.06;2611438;36;20363;-48
2022/08/05 11:55:11;;;;;;;;;;;;;;;24.16;64.89;101895.34;2613148;31;19981;-52
2022/08/05 11:57:39;;;;;;;;;;;;;;;24.49;64.14;101912.88;2611605;36;19950;-48
2022/08/05 12:00:26;;;;;;;;;;;;;;;23.90;65.11;101913.34;2608604;36;20039;-48
2022/08/05 12:02:54;;;;;;;;;;;;;;;24.10;68.59;101911.59;2612212;36;19950;-49
2022/08/05 12:05:27;;;;;;;;;;;;;;;23.68;74.90;101921.59;2612776;36;19958;-51
2022/08/05 12:07:58;;;;;;;;;;;;;;;23.22;73.50;101927.47;2610701;36;20912;-50
2022/08/05 12:10:27;;;;;;;;;;;;;;;23.27;77.91;101930.47;2609657;36;19981;-50
2022/08/05 12:12:55;;;;;;;;;;;;;;;23.09;68.79;101939.97;2603624;31;19971;-49
2022/08/05 12:15:26;;;;;;;;;;;;;;;23.17;71.38;101941.75;2612744;36;19954;-50
2022/08/05 12:17:54;;;;;;;;;;;;;;;23.46;71.02;101950.13;2612555;36;19951;-47
2022/08/05 12:20:29;;;;;;;;;;;;;;;23.38;66.96;101943.72;2604638;36;19954;-51
2022/08/05 12:23:09;;;;;;;;;;;;;;;23.69;68.25;101949.91;2612891;31;20349;-49
2022/08/05 12:25:50;;;;;;;;;;;;;;;23.48;62.85;101953.53;2613065;36;19950;-50
2022/08/05 12:28:31;;;;;;;;;;;;;;;23.17;66.21;101957.41;2612546;36;19951;-47
2022/08/05 12:31:02;;;;;;;;;;;;;;;23.09;73.18;101967.41;2613513;36;19950;-47
2022/08/05 12:33:30;;;;;;;;;;;;;;;23.11;73.11;101963.66;2613194;36;19958;-49
2022/08/05 12:35:59;;;;;;;;;;;;;;;23.43;68.65;101968.69;2611179;36;20010;-47
2022/08/05 12:38:27;;;;;;;;;;;;;;;23.29;67.73;101975.06;2611844;36;19977;-49
2022/08/05 12:40:57;;;;;;;;;;;;;;;22.91;74.29;101964.25;2612384;31;19951;-51
2022/08/05 12:43:25;;;;;;;;;;;;;;;23.17;73.87;101971.13;2612319;31;19946;-48
2022/08/05 12:45:53;;;;;;;;;;;;;;;23.41;77.70;101973.53;2613176;36;19984;-48
2022/08/05 12:48:24;;;;;;;;;;;;;;;23.57;82.80;101974.31;2612462;36;20313;-51